createdAt,value
2017-05-24T00:00:03.776Z,24.8
2017-05-24T00:01:14.055Z,24.8
2017-05-24T00:02:24.502Z,24.8
2017-05-24T00:03:34.779Z,24.85
2017-05-24T00:04:44.076Z,24.77
2017-05-24T00:05:53.983Z,24.73
2017-05-24T00:07:03.585Z,24.84
2017-05-24T00:08:13.498Z,24.77
2017-05-24T00:09:23.413Z,24.77
2017-05-24T00:10:32.720Z,24.8
2017-05-24T00:11:41.727Z,24.77
2017-05-24T00:12:51.636Z,24.83
2017-05-24T00:14:01.557Z,24.77
2017-05-24T00:15:11.789Z,24.71
2017-05-24T00:16:21.709Z,24.76
2017-05-24T00:17:31.322Z,24.84
2017-05-24T00:18:41.243Z,24.77
2017-05-24T00:19:50.556Z,24.84
2017-05-24T00:20:59.858Z,24.77
2017-05-24T00:22:09.147Z,24.8
2017-05-24T00:23:19.134Z,24.81
2017-05-24T00:24:29.050Z,24.84
2017-05-24T00:25:39.269Z,24.83
2017-05-24T00:26:49.885Z,24.77
2017-05-24T00:28:00.109Z,24.78
2017-05-24T00:29:09.704Z,24.84
2017-05-24T00:30:19.662Z,24.71
2017-05-24T00:31:29.000Z,24.87
2017-05-24T00:32:38.605Z,24.84
2017-05-24T00:33:47.916Z,24.81
2017-05-24T00:34:58.536Z,24.76
2017-05-24T00:36:08.157Z,24.84
2017-05-24T00:37:17.457Z,24.8
2017-05-24T00:38:27.088Z,24.87
2017-05-24T00:39:36.695Z,24.77
2017-05-24T00:40:46.910Z,24.83
2017-05-24T00:41:56.214Z,24.78
2017-05-24T00:43:05.816Z,24.81
2017-05-24T00:44:15.438Z,24.81
2017-05-24T00:45:24.758Z,24.76
2017-05-24T00:46:34.065Z,24.84
2017-05-24T00:47:44.064Z,24.83
2017-05-24T00:48:54.000Z,24.77
2017-05-24T00:50:04.260Z,24.81
2017-05-24T00:51:14.202Z,24.78
2017-05-24T00:52:24.154Z,24.77
2017-05-24T00:53:33.464Z,24.81
2017-05-24T00:54:43.084Z,24.77
2017-05-24T00:55:52.446Z,24.84
2017-05-24T00:57:02.379Z,24.81
2017-05-24T00:58:12.285Z,24.83
2017-05-24T00:59:21.890Z,24.78
2017-05-24T01:00:31.207Z,24.78
2017-05-24T01:01:41.123Z,24.77
2017-05-24T01:02:51.057Z,24.8
2017-05-24T01:04:00.363Z,24.81
2017-05-24T01:05:10.300Z,24.78
2017-05-24T01:06:20.222Z,24.8
2017-05-24T01:07:29.827Z,24.78
2017-05-24T01:08:39.478Z,24.78
2017-05-24T01:09:49.388Z,24.76
2017-05-24T01:10:59.621Z,24.77
2017-05-24T01:12:09.574Z,24.76
2017-05-24T01:13:19.484Z,24.78
2017-05-24T01:14:29.412Z,24.76
2017-05-24T01:15:39.317Z,24.71
2017-05-24T01:16:49.234Z,24.77
2017-05-24T01:17:59.444Z,24.77
2017-05-24T01:19:09.658Z,24.81
2017-05-24T01:20:19.572Z,24.81
2017-05-24T01:21:29.486Z,24.73
2017-05-24T01:22:39.401Z,24.77
2017-05-24T01:23:49.322Z,24.78
2017-05-24T01:24:58.933Z,24.78
2017-05-24T01:26:08.848Z,24.73
2017-05-24T01:27:19.060Z,24.77
2017-05-24T01:28:29.281Z,24.77
2017-05-24T01:32:17.801Z,24.77
2017-05-24T01:33:27.408Z,24.76
2017-05-24T01:34:37.330Z,24.71
2017-05-24T01:35:46.950Z,24.73
2017-05-24T01:36:56.870Z,24.78
2017-05-24T01:38:07.098Z,24.76
2017-05-24T01:39:16.720Z,24.81
2017-05-24T01:40:26.637Z,24.69
2017-05-24T01:41:36.598Z,24.76
2017-05-24T01:42:46.880Z,24.73
2017-05-24T01:43:56.484Z,24.65
2017-05-24T01:45:06.870Z,24.77
2017-05-24T01:46:16.162Z,24.77
2017-05-24T01:47:26.388Z,24.67
2017-05-24T01:48:35.739Z,24.76
2017-05-24T01:49:45.665Z,24.73
2017-05-24T01:50:55.915Z,24.68
2017-05-24T01:52:05.835Z,24.78
2017-05-24T01:53:15.750Z,24.69
2017-05-24T01:54:25.987Z,24.8
2017-05-24T01:55:35.904Z,24.71
2017-05-24T01:56:45.514Z,24.67
2017-05-24T01:57:55.448Z,24.69
2017-05-24T01:59:05.382Z,24.71
2017-05-24T02:00:15.295Z,24.67
2017-05-24T02:01:24.917Z,24.71
2017-05-24T02:02:34.830Z,24.73
2017-05-24T02:03:45.054Z,24.71
2017-05-24T02:04:54.990Z,24.68
2017-05-24T02:06:05.270Z,24.71
2017-05-24T02:07:14.590Z,24.71
2017-05-24T02:08:24.522Z,24.68
2017-05-24T02:09:34.440Z,24.71
2017-05-24T02:10:44.671Z,24.69
2017-05-24T02:11:54.302Z,24.69
2017-05-24T02:13:04.228Z,24.71
2017-05-24T02:14:14.151Z,24.67
2017-05-24T02:15:24.384Z,24.69
2017-05-24T02:16:34.310Z,24.71
2017-05-24T02:17:44.232Z,24.68
2017-05-24T02:18:54.155Z,24.73
2017-05-24T02:20:03.936Z,24.67
2017-05-24T02:21:13.555Z,24.71
2017-05-24T02:22:23.481Z,24.61
2017-05-24T02:23:33.094Z,24.68
2017-05-24T02:24:43.014Z,24.68
2017-05-24T02:25:52.636Z,24.68
2017-05-24T02:27:02.247Z,24.65
2017-05-24T02:28:12.174Z,24.65
2017-05-24T02:29:21.495Z,24.73
2017-05-24T02:30:31.412Z,24.71
2017-05-24T02:31:40.702Z,24.69
2017-05-24T02:32:50.608Z,24.68
2017-05-24T02:34:00.841Z,24.77
2017-05-24T02:35:10.135Z,24.69
2017-05-24T02:36:20.084Z,24.64
2017-05-24T02:37:30.117Z,24.71
2017-05-24T02:38:40.037Z,24.71
2017-05-24T02:39:49.650Z,24.64
2017-05-24T02:40:59.274Z,24.64
2017-05-24T02:42:08.881Z,24.65
2017-05-24T02:43:18.797Z,24.65
2017-05-24T02:44:29.016Z,24.65
2017-05-24T02:45:39.258Z,24.64
2017-05-24T02:46:48.565Z,24.65
2017-05-24T02:47:58.485Z,24.69
2017-05-24T02:49:07.940Z,24.64
2017-05-24T02:50:17.861Z,24.65
2017-05-24T02:51:27.785Z,24.67
2017-05-24T02:52:37.395Z,24.67
2017-05-24T02:53:47.023Z,24.64
2017-05-24T02:54:56.950Z,24.67
2017-05-24T02:56:06.564Z,24.64
2017-05-24T02:57:16.493Z,24.69
2017-05-24T02:58:26.400Z,24.6
2017-05-24T02:59:36.623Z,24.64
2017-05-24T03:00:45.925Z,24.65
2017-05-24T03:01:55.856Z,24.68
2017-05-24T03:03:05.793Z,24.65
2017-05-24T03:04:15.394Z,24.65
2017-05-24T03:05:25.309Z,24.71
2017-05-24T03:06:34.643Z,24.68
2017-05-24T03:07:43.955Z,24.73
2017-05-24T03:08:53.886Z,24.67
2017-05-24T03:10:03.830Z,24.58
2017-05-24T03:11:14.439Z,24.67
2017-05-24T03:12:24.053Z,24.65
2017-05-24T03:13:33.978Z,24.67
2017-05-24T03:14:43.610Z,24.68
2017-05-24T03:15:53.858Z,24.6
2017-05-24T03:17:04.082Z,24.68
2017-05-24T03:18:13.430Z,24.71
2017-05-24T03:19:23.353Z,24.62
2017-05-24T03:20:32.695Z,24.69
2017-05-24T03:21:42.941Z,24.57
2017-05-24T03:22:52.865Z,24.65
2017-05-24T03:24:02.787Z,24.71
2017-05-24T03:25:13.016Z,24.61
2017-05-24T03:26:23.004Z,24.62
2017-05-24T03:27:32.626Z,24.62
2017-05-24T03:28:42.546Z,24.62
2017-05-24T03:29:52.484Z,24.71
2017-05-24T03:31:02.100Z,24.68
2017-05-24T03:32:12.366Z,24.67
2017-05-24T03:33:22.388Z,24.68
2017-05-24T03:34:31.994Z,24.62
2017-05-24T03:35:42.240Z,24.68
2017-05-24T03:36:52.154Z,24.68
2017-05-24T03:38:02.099Z,24.62
2017-05-24T03:39:12.318Z,24.65
2017-05-24T03:40:22.554Z,24.71
2017-05-24T03:41:32.487Z,24.64
2017-05-24T03:42:42.398Z,24.58
2017-05-24T03:43:52.329Z,24.68
2017-05-24T03:45:02.278Z,24.69
2017-05-24T03:46:12.561Z,24.62
2017-05-24T03:47:22.204Z,24.67
2017-05-24T03:48:32.438Z,24.64
2017-05-24T03:49:42.069Z,24.67
2017-05-24T03:50:51.994Z,24.65
2017-05-24T03:52:01.923Z,24.61
2017-05-24T03:53:12.677Z,24.69
2017-05-24T03:54:22.892Z,24.67
2017-05-24T03:55:32.523Z,24.68
2017-05-24T03:56:42.451Z,24.62
2017-05-24T03:57:52.094Z,24.65
2017-05-24T03:59:01.724Z,24.62
2017-05-24T04:00:11.644Z,24.64
2017-05-24T04:01:21.264Z,24.64
2017-05-24T04:02:31.184Z,24.67
2017-05-24T04:03:41.415Z,24.69
2017-05-24T04:04:51.335Z,24.64
2017-05-24T04:06:01.568Z,24.65
2017-05-24T04:07:11.473Z,24.67
2017-05-24T04:08:21.716Z,24.64
2017-05-24T04:09:31.658Z,24.64
2017-05-24T04:10:40.970Z,24.67
2017-05-24T04:11:50.619Z,24.69
2017-05-24T04:13:00.542Z,24.65
2017-05-24T04:14:10.490Z,24.61
2017-05-24T04:15:20.708Z,24.73
2017-05-24T04:16:30.317Z,24.76
2017-05-24T04:17:39.938Z,24.69
2017-05-24T04:18:49.556Z,24.67
2017-05-24T04:19:59.488Z,24.68
2017-05-24T04:21:09.737Z,24.67
2017-05-24T04:22:19.654Z,24.67
2017-05-24T04:23:29.876Z,24.68
2017-05-24T04:24:40.119Z,24.68
2017-05-24T04:25:50.040Z,24.69
2017-05-24T04:27:00.265Z,24.69
2017-05-24T04:28:10.490Z,24.71
2017-05-24T04:29:20.102Z,24.68
2017-05-24T04:30:29.721Z,24.77
2017-05-24T04:31:39.357Z,24.67
2017-05-24T04:32:48.982Z,24.67
2017-05-24T04:33:59.209Z,24.78
2017-05-24T04:35:09.136Z,24.67
2017-05-24T04:36:18.734Z,24.8
2017-05-24T04:37:28.653Z,24.8
2017-05-24T04:38:38.587Z,24.77
2017-05-24T04:39:48.199Z,24.77
2017-05-24T04:40:58.117Z,24.8
2017-05-24T04:42:08.039Z,24.84
2017-05-24T04:43:18.286Z,24.84
2017-05-24T04:44:28.210Z,24.77
2017-05-24T04:45:38.125Z,24.84
2017-05-24T04:46:48.050Z,24.77
2017-05-24T04:47:58.281Z,24.78
2017-05-24T04:49:07.900Z,24.73
2017-05-24T04:50:17.823Z,24.71
2017-05-24T04:51:27.829Z,24.88
2017-05-24T04:52:37.436Z,24.8
2017-05-24T04:53:47.662Z,24.81
2017-05-24T04:54:56.973Z,24.77
2017-05-24T04:56:06.896Z,24.81
2017-05-24T04:57:16.817Z,24.85
2017-05-24T04:58:26.424Z,24.8
2017-05-24T04:59:36.034Z,24.77
2017-05-24T05:00:45.656Z,24.8
2017-05-24T05:01:55.589Z,24.93
2017-05-24T05:03:05.193Z,24.99
2017-05-24T05:04:14.832Z,24.93
2017-05-24T05:05:24.750Z,24.91
2017-05-24T05:06:34.680Z,24.96
2017-05-24T05:07:44.605Z,24.98
2017-05-24T05:08:54.210Z,24.91
2017-05-24T05:10:03.811Z,24.98
2017-05-24T05:11:13.713Z,24.99
2017-05-24T05:12:23.939Z,24.93
2017-05-24T05:13:34.144Z,25
2017-05-24T05:14:43.770Z,24.91
2017-05-24T05:15:53.990Z,24.95
2017-05-24T05:17:03.925Z,24.91
2017-05-24T05:18:13.856Z,25
2017-05-24T05:19:23.787Z,24.98
2017-05-24T05:20:33.509Z,24.98
2017-05-24T05:21:43.736Z,25.06
2017-05-24T05:22:53.673Z,25.06
2017-05-24T05:24:03.658Z,25.05
2017-05-24T05:25:13.311Z,25.06
2017-05-24T05:26:22.316Z,25.17
2017-05-24T05:27:31.981Z,25.15
2017-05-24T05:28:41.585Z,25.2
2017-05-24T05:29:51.843Z,25.21
2017-05-24T05:31:02.092Z,25.28
2017-05-24T05:32:12.350Z,25.32
2017-05-24T05:33:22.599Z,25.38
2017-05-24T05:34:32.823Z,25.43
2017-05-24T05:35:42.132Z,25.45
2017-05-24T05:36:52.036Z,25.5
2017-05-24T05:38:01.340Z,25.5
2017-05-24T05:39:10.949Z,25.55
2017-05-24T05:40:21.188Z,25.57
2017-05-24T05:41:31.128Z,25.64
2017-05-24T05:42:41.078Z,25.65
2017-05-24T05:43:50.992Z,25.65
2017-05-24T05:45:00.606Z,25.76
2017-05-24T05:46:10.244Z,25.79
2017-05-24T05:47:20.177Z,25.91
2017-05-24T05:48:29.804Z,25.94
2017-05-24T05:49:39.905Z,25.9
2017-05-24T05:50:49.528Z,25.95
2017-05-24T05:51:59.461Z,25.94
2017-05-24T05:53:09.065Z,25.95
2017-05-24T05:54:19.006Z,25.91
2017-05-24T05:55:28.911Z,26.01
2017-05-24T05:56:39.155Z,26.09
2017-05-24T05:57:49.074Z,25.99
2017-05-24T05:58:59.047Z,26.1
2017-05-24T06:00:08.681Z,26.02
2017-05-24T06:01:18.898Z,26.07
2017-05-24T06:02:29.146Z,26.13
2017-05-24T06:03:38.487Z,26.23
2017-05-24T06:04:48.747Z,26.32
2017-05-24T06:05:58.731Z,26.32
2017-05-24T06:07:08.637Z,26.33
2017-05-24T06:08:18.564Z,26.32
2017-05-24T06:09:28.185Z,26.35
2017-05-24T06:10:38.427Z,26.39
2017-05-24T06:11:48.049Z,26.28
2017-05-24T06:12:57.675Z,26.37
2017-05-24T06:14:07.599Z,26.36
2017-05-24T06:15:17.230Z,26.32
2017-05-24T06:16:27.169Z,26.3
2017-05-24T06:17:36.799Z,26.28
2017-05-24T06:18:47.031Z,26.28
2017-05-24T06:19:56.649Z,26.28
2017-05-24T06:21:06.277Z,26.3
2017-05-24T06:22:16.196Z,26.29
2017-05-24T06:23:25.806Z,26.28
2017-05-24T06:24:35.724Z,26.25
2017-05-24T06:25:45.628Z,26.2
2017-05-24T06:26:55.846Z,26.23
2017-05-24T06:28:05.164Z,26.2
2017-05-24T06:29:15.096Z,26.21
2017-05-24T06:30:25.082Z,26.09
2017-05-24T06:31:34.708Z,26.09
2017-05-24T06:32:44.941Z,26.13
2017-05-24T06:33:54.867Z,26.07
2017-05-24T06:35:04.482Z,26.07
2017-05-24T06:36:13.807Z,25.97
2017-05-24T06:37:24.067Z,25.95
2017-05-24T06:38:33.990Z,26.07
2017-05-24T06:39:43.896Z,25.95
2017-05-24T06:40:53.508Z,26.02
2017-05-24T06:42:03.130Z,25.92
2017-05-24T06:43:12.453Z,25.94
2017-05-24T06:44:22.685Z,25.98
2017-05-24T06:45:32.625Z,25.97
2017-05-24T06:46:41.936Z,25.97
2017-05-24T06:47:51.851Z,25.94
2017-05-24T06:49:02.128Z,25.88
2017-05-24T06:50:11.732Z,25.9
2017-05-24T06:51:21.707Z,25.88
2017-05-24T06:52:31.037Z,25.85
2017-05-24T06:53:39.738Z,25.82
2017-05-24T06:54:49.983Z,25.79
2017-05-24T06:55:59.942Z,25.82
2017-05-24T06:57:09.859Z,25.79
2017-05-24T06:58:19.788Z,25.7
2017-05-24T06:59:29.706Z,25.77
2017-05-24T07:00:39.340Z,25.73
2017-05-24T07:01:48.975Z,25.75
2017-05-24T07:02:59.323Z,25.73
2017-05-24T07:04:09.567Z,25.67
2017-05-24T07:05:19.482Z,25.75
2017-05-24T07:06:29.109Z,25.75
2017-05-24T07:07:39.032Z,25.73
2017-05-24T07:08:48.951Z,25.75
2017-05-24T07:09:58.861Z,25.73
2017-05-24T07:11:08.798Z,25.79
2017-05-24T07:12:18.416Z,25.77
2017-05-24T07:13:28.340Z,25.82
2017-05-24T07:14:38.257Z,25.8
2017-05-24T07:15:47.557Z,25.91
2017-05-24T07:16:57.491Z,25.94
2017-05-24T07:18:07.128Z,25.97
2017-05-24T07:19:17.089Z,25.91
2017-05-24T07:20:27.023Z,25.92
2017-05-24T07:21:37.251Z,26.06
2017-05-24T07:22:47.489Z,26.07
2017-05-24T07:23:57.441Z,26.07
2017-05-24T07:25:06.767Z,25.97
2017-05-24T07:26:16.995Z,25.98
2017-05-24T07:27:27.249Z,26.05
2017-05-24T07:28:36.869Z,26.09
2017-05-24T07:29:46.808Z,25.99
2017-05-24T07:30:56.422Z,25.91
2017-05-24T07:32:06.361Z,25.94
2017-05-24T07:33:16.356Z,25.95
2017-05-24T07:34:26.301Z,26.06
2017-05-24T07:35:36.228Z,25.91
2017-05-24T07:36:45.546Z,25.97
2017-05-24T07:37:54.867Z,25.94
2017-05-24T07:39:05.104Z,25.94
2017-05-24T07:40:15.036Z,25.92
2017-05-24T07:41:24.976Z,25.9
2017-05-24T07:42:34.608Z,25.87
2017-05-24T07:43:44.554Z,25.88
2017-05-24T07:44:54.795Z,25.9
2017-05-24T07:46:05.041Z,25.95
2017-05-24T07:47:15.273Z,25.91
2017-05-24T07:48:24.900Z,25.9
2017-05-24T07:49:34.844Z,25.88
2017-05-24T07:50:44.479Z,25.83
2017-05-24T07:51:54.089Z,25.88
2017-05-24T07:53:04.007Z,25.91
2017-05-24T07:54:13.953Z,25.9
2017-05-24T07:55:23.879Z,25.92
2017-05-24T07:56:33.798Z,25.9
2017-05-24T07:57:44.082Z,25.82
2017-05-24T07:58:54.009Z,25.94
2017-05-24T08:00:03.638Z,25.94
2017-05-24T08:01:12.938Z,25.82
2017-05-24T08:02:22.868Z,25.76
2017-05-24T08:03:32.804Z,25.8
2017-05-24T08:04:42.734Z,25.82
2017-05-24T08:05:52.669Z,25.75
2017-05-24T08:07:01.668Z,25.76
2017-05-24T08:08:11.896Z,25.82
2017-05-24T08:09:21.507Z,25.7
2017-05-24T08:10:31.119Z,25.69
2017-05-24T08:11:40.732Z,25.7
2017-05-24T08:12:50.664Z,25.73
2017-05-24T08:14:00.588Z,25.64
2017-05-24T08:15:10.832Z,25.67
2017-05-24T08:16:20.452Z,25.72
2017-05-24T08:17:30.362Z,25.61
2017-05-24T08:18:40.602Z,25.64
2017-05-24T08:19:50.514Z,25.69
2017-05-24T08:20:59.824Z,25.65
2017-05-24T08:22:08.873Z,25.62
2017-05-24T08:23:17.889Z,25.72
2017-05-24T08:24:28.135Z,25.6
2017-05-24T08:25:37.747Z,25.62
2017-05-24T08:26:47.360Z,25.73
2017-05-24T08:27:57.593Z,25.67
2017-05-24T08:29:06.972Z,25.7
2017-05-24T08:30:16.911Z,25.79
2017-05-24T08:31:26.831Z,25.77
2017-05-24T08:32:36.758Z,25.82
2017-05-24T08:33:47.002Z,25.87
2017-05-24T08:34:56.615Z,25.91
2017-05-24T08:36:06.853Z,25.94
2017-05-24T08:37:16.470Z,25.95
2017-05-24T08:38:26.101Z,25.97
2017-05-24T08:39:35.703Z,25.97
2017-05-24T08:40:45.326Z,25.94
2017-05-24T08:41:55.559Z,25.99
2017-05-24T08:43:04.879Z,25.9
2017-05-24T08:44:14.827Z,25.97
2017-05-24T08:45:24.761Z,25.92
2017-05-24T08:46:34.374Z,25.97
2017-05-24T08:47:44.331Z,25.97
2017-05-24T08:48:53.943Z,25.91
2017-05-24T08:50:03.940Z,25.95
2017-05-24T08:51:12.955Z,26.06
2017-05-24T08:52:23.181Z,25.98
2017-05-24T08:53:32.487Z,25.92
2017-05-24T08:54:42.406Z,25.98
2017-05-24T08:55:52.345Z,26.02
2017-05-24T08:57:01.985Z,25.97
2017-05-24T08:58:11.917Z,26.06
2017-05-24T08:59:21.550Z,26.02
2017-05-24T09:00:31.166Z,26.02
2017-05-24T09:01:40.771Z,25.94
2017-05-24T09:02:50.079Z,26.06
2017-05-24T09:04:00.002Z,26.01
2017-05-24T09:05:09.928Z,25.95
2017-05-24T09:06:19.534Z,26.06
2017-05-24T09:07:29.775Z,25.97
2017-05-24T09:08:39.707Z,25.99
2017-05-24T09:09:49.324Z,25.99
2017-05-24T09:10:59.267Z,25.91
2017-05-24T09:12:09.184Z,25.97
2017-05-24T09:13:18.191Z,25.98
2017-05-24T09:14:27.806Z,25.92
2017-05-24T09:15:37.741Z,26.05
2017-05-24T09:16:47.979Z,26.02
2017-05-24T09:17:58.213Z,25.98
2017-05-24T09:19:08.501Z,25.98
2017-05-24T09:20:17.811Z,25.99
2017-05-24T09:21:27.733Z,26.01
2017-05-24T09:22:37.965Z,25.92
2017-05-24T09:23:47.585Z,25.98
2017-05-24T09:24:57.523Z,25.92
2017-05-24T09:26:07.456Z,26.06
2017-05-24T09:27:17.074Z,26.06
2017-05-24T09:28:26.715Z,25.98
2017-05-24T09:29:36.633Z,26.02
2017-05-24T09:30:46.614Z,25.92
2017-05-24T09:31:56.538Z,25.99
2017-05-24T09:33:06.459Z,26.01
2017-05-24T09:34:16.689Z,25.95
2017-05-24T09:35:26.614Z,25.99
2017-05-24T09:36:36.549Z,26.02
2017-05-24T09:37:46.707Z,26.07
2017-05-24T09:38:56.945Z,26.13
2017-05-24T09:40:06.555Z,26.12
2017-05-24T09:41:16.159Z,26.17
2017-05-24T09:42:26.383Z,26.29
2017-05-24T09:43:36.620Z,26.21
2017-05-24T09:44:46.861Z,26.28
2017-05-24T09:45:56.176Z,26.3
2017-05-24T09:47:06.397Z,26.3
2017-05-24T09:48:16.021Z,26.3
2017-05-24T09:49:25.952Z,26.28
2017-05-24T09:50:35.868Z,26.29
2017-05-24T09:51:46.103Z,26.3
2017-05-24T09:52:56.032Z,26.29
2017-05-24T09:54:05.037Z,26.3
2017-05-24T09:55:15.271Z,26.33
2017-05-24T09:56:25.196Z,26.36
2017-05-24T09:57:35.425Z,26.37
2017-05-24T09:58:45.661Z,26.37
2017-05-24T09:59:55.595Z,26.36
2017-05-24T10:01:05.215Z,26.32
2017-05-24T10:02:14.847Z,26.4
2017-05-24T10:03:25.075Z,26.33
2017-05-24T10:04:34.762Z,26.33
2017-05-24T10:05:44.397Z,26.3
2017-05-24T10:06:54.654Z,26.33
2017-05-24T10:08:04.590Z,26.32
2017-05-24T10:09:14.523Z,26.26
2017-05-24T10:10:24.852Z,26.18
2017-05-24T10:11:34.775Z,26.18
2017-05-24T10:12:44.717Z,26.17
2017-05-24T10:13:54.950Z,26.12
2017-05-24T10:15:05.189Z,26.07
2017-05-24T10:16:15.112Z,26.06
2017-05-24T10:17:24.793Z,26.13
2017-05-24T10:18:34.723Z,26.12
2017-05-24T10:19:44.371Z,26.15
2017-05-24T10:20:54.611Z,26.09
2017-05-24T10:22:04.845Z,26.09
2017-05-24T10:23:14.766Z,26.12
2017-05-24T10:24:24.399Z,26.06
2017-05-24T10:25:34.332Z,26.02
2017-05-24T10:26:44.015Z,26.09
2017-05-24T10:27:54.277Z,25.99
2017-05-24T10:29:04.571Z,26.02
2017-05-24T10:30:13.930Z,25.99
2017-05-24T10:31:23.912Z,25.97
2017-05-24T10:32:33.845Z,26.09
2017-05-24T10:33:44.152Z,26.17
2017-05-24T10:34:54.405Z,26.1
2017-05-24T10:36:04.050Z,26.02
2017-05-24T10:37:13.987Z,26.05
2017-05-24T10:38:23.617Z,26.02
2017-05-24T10:39:33.226Z,25.94
2017-05-24T10:40:43.165Z,25.97
2017-05-24T10:41:53.108Z,25.99
2017-05-24T10:43:03.044Z,26.1
2017-05-24T10:44:13.298Z,26.1
2017-05-24T10:45:23.529Z,26.02
2017-05-24T10:46:33.462Z,25.98
2017-05-24T10:47:43.088Z,26.06
2017-05-24T10:48:53.387Z,25.97
2017-05-24T10:50:03.637Z,26.05
2017-05-24T10:51:13.292Z,25.99
2017-05-24T10:52:23.607Z,25.98
2017-05-24T10:53:33.842Z,26.07
2017-05-24T10:54:43.460Z,25.99
2017-05-24T10:55:53.744Z,26.13
2017-05-24T10:57:03.964Z,26.1
2017-05-24T10:58:13.882Z,26.1
2017-05-24T10:59:23.804Z,25.98
2017-05-24T11:00:33.718Z,25.98
2017-05-24T11:01:43.343Z,26.05
2017-05-24T11:02:52.644Z,25.97
2017-05-24T11:04:02.568Z,25.95
2017-05-24T11:05:12.815Z,26.01
2017-05-24T11:06:23.046Z,26.02
2017-05-24T11:07:32.679Z,25.95
2017-05-24T11:08:42.629Z,25.95
2017-05-24T11:09:52.557Z,25.9
2017-05-24T11:11:02.785Z,25.97
2017-05-24T11:12:12.409Z,25.97
2017-05-24T11:13:22.652Z,25.97
2017-05-24T11:14:32.571Z,25.99
2017-05-24T11:15:42.796Z,25.95
2017-05-24T11:16:52.719Z,25.95
2017-05-24T11:18:02.679Z,25.92
2017-05-24T11:19:12.298Z,25.92
2017-05-24T11:20:22.538Z,25.97
2017-05-24T11:21:32.772Z,25.97
2017-05-24T11:22:42.721Z,25.95
2017-05-24T11:23:52.633Z,25.97
2017-05-24T11:25:02.255Z,25.92
2017-05-24T11:26:11.557Z,25.91
2017-05-24T11:27:21.793Z,25.94
2017-05-24T11:28:31.711Z,25.92
2017-05-24T11:29:41.017Z,25.95
2017-05-24T11:30:50.940Z,25.9
2017-05-24T11:32:00.877Z,25.9
2017-05-24T11:33:10.792Z,25.95
2017-05-24T11:34:52.195Z,25.97
2017-05-24T11:36:02.428Z,25.98
2017-05-24T11:37:12.359Z,25.91
2017-05-24T11:38:21.985Z,25.9
2017-05-24T11:39:32.232Z,25.92
2017-05-24T11:40:42.481Z,25.92
2017-05-24T11:41:52.101Z,25.88
2017-05-24T11:43:01.719Z,25.9
2017-05-24T11:44:11.487Z,25.92
2017-05-24T11:45:21.402Z,25.85
2017-05-24T11:46:30.739Z,25.82
2017-05-24T11:47:40.974Z,25.94
2017-05-24T11:48:51.220Z,25.73
2017-05-24T11:50:01.191Z,25.85
2017-05-24T11:51:11.102Z,25.9
2017-05-24T11:52:21.044Z,25.94
2017-05-24T11:53:30.958Z,25.88
2017-05-24T11:54:40.891Z,25.88
2017-05-24T11:55:50.827Z,25.85
2017-05-24T11:57:00.747Z,25.88
2017-05-24T11:58:10.357Z,25.87
2017-05-24T11:59:19.994Z,25.92
2017-05-24T12:00:29.915Z,25.83
2017-05-24T12:01:39.529Z,25.83
2017-05-24T12:02:49.449Z,25.85
2017-05-24T12:03:59.069Z,25.85
2017-05-24T12:05:08.686Z,25.83
2017-05-24T12:06:18.614Z,25.83
2017-05-24T12:07:28.835Z,25.94
2017-05-24T12:08:38.136Z,25.87
2017-05-24T12:09:48.062Z,25.9
2017-05-24T12:10:57.679Z,25.87
2017-05-24T12:12:07.302Z,25.91
2017-05-24T12:13:17.581Z,25.92
2017-05-24T12:14:27.858Z,25.97
2017-05-24T12:15:37.855Z,25.95
2017-05-24T12:16:47.807Z,25.95
2017-05-24T12:17:57.733Z,25.95
2017-05-24T12:19:07.958Z,25.98
2017-05-24T12:20:18.188Z,26.02
2017-05-24T12:21:28.099Z,25.92
2017-05-24T12:22:38.325Z,25.97
2017-05-24T12:23:48.233Z,25.94
2017-05-24T12:24:58.312Z,25.97
2017-05-24T12:26:08.538Z,26.02
2017-05-24T12:27:18.152Z,25.97
2017-05-24T12:28:28.380Z,26.01
2017-05-24T12:29:38.000Z,26.02
2017-05-24T12:30:47.930Z,25.94
2017-05-24T12:31:57.853Z,25.95
2017-05-24T12:33:07.777Z,25.98
2017-05-24T12:34:17.705Z,26.05
2017-05-24T12:35:26.722Z,25.97
2017-05-24T12:36:36.507Z,25.95
2017-05-24T12:37:46.423Z,25.91
2017-05-24T12:38:56.342Z,25.94
2017-05-24T12:40:06.279Z,25.92
2017-05-24T12:41:15.902Z,25.92
2017-05-24T12:42:26.221Z,25.97
2017-05-24T12:43:36.448Z,25.95
2017-05-24T12:44:46.061Z,26.05
2017-05-24T12:45:55.682Z,26.01
2017-05-24T12:47:05.599Z,25.99
2017-05-24T12:48:15.671Z,25.98
2017-05-24T12:49:25.290Z,25.97
2017-05-24T12:50:35.213Z,26.02
2017-05-24T12:51:45.144Z,26.07
2017-05-24T12:52:55.083Z,25.95
2017-05-24T12:54:05.011Z,25.97
2017-05-24T12:55:15.244Z,26.13
2017-05-24T12:56:25.477Z,25.97
2017-05-24T12:57:35.724Z,25.95
2017-05-24T12:58:45.956Z,25.99
2017-05-24T12:59:55.881Z,26.02
2017-05-24T13:01:05.848Z,26.02
2017-05-24T13:02:15.478Z,26.12
2017-05-24T13:03:24.777Z,26.01
2017-05-24T13:04:34.710Z,26.02
2017-05-24T13:05:44.478Z,26.02
2017-05-24T13:06:54.411Z,25.98
2017-05-24T13:08:03.413Z,26.01
2017-05-24T13:09:12.423Z,25.99
2017-05-24T13:10:22.666Z,26.13
2017-05-24T13:11:32.725Z,26.06
2017-05-24T13:12:42.649Z,25.99
2017-05-24T13:13:52.261Z,26.13
2017-05-24T13:15:02.200Z,26.07
2017-05-24T13:16:11.874Z,26.12
2017-05-24T13:17:21.792Z,26.07
2017-05-24T13:18:30.787Z,26.07
2017-05-24T13:19:40.410Z,26.13
2017-05-24T13:20:50.343Z,26.1
2017-05-24T13:22:00.260Z,26.13
2017-05-24T13:23:10.343Z,26.09
2017-05-24T13:24:19.964Z,26.09
2017-05-24T13:25:30.224Z,26.1
2017-05-24T13:26:40.142Z,26.1
2017-05-24T13:27:49.770Z,26.12
2017-05-24T13:29:00.016Z,26.07
2017-05-24T13:30:09.941Z,26.12
2017-05-24T13:31:19.874Z,26.05
2017-05-24T13:32:29.524Z,25.98
2017-05-24T13:33:39.143Z,25.95
2017-05-24T13:34:49.084Z,26.06
2017-05-24T13:35:59.005Z,26.1
2017-05-24T13:37:08.923Z,25.98
2017-05-24T13:38:19.162Z,26.06
2017-05-24T13:39:28.790Z,25.94
2017-05-24T13:40:38.863Z,25.97
2017-05-24T13:41:49.107Z,25.97
2017-05-24T13:42:59.029Z,25.92
2017-05-24T13:44:08.943Z,25.98
2017-05-24T13:45:19.156Z,26.01
2017-05-24T13:46:29.089Z,25.97
2017-05-24T13:47:38.395Z,25.98
2017-05-24T13:48:48.309Z,25.97
2017-05-24T13:49:58.534Z,26.12
2017-05-24T13:51:08.136Z,25.95
2017-05-24T13:52:18.413Z,25.98
2017-05-24T13:53:27.730Z,25.97
2017-05-24T13:54:37.958Z,26.05
2017-05-24T13:55:47.870Z,25.97
2017-05-24T13:56:57.493Z,25.97
2017-05-24T13:58:07.415Z,25.97
2017-05-24T13:59:17.636Z,25.94
2017-05-24T14:00:27.258Z,26.02
2017-05-24T14:01:37.212Z,25.94
2017-05-24T14:02:47.136Z,25.98
2017-05-24T14:03:56.765Z,25.94
2017-05-24T14:05:06.688Z,25.94
2017-05-24T14:06:16.305Z,25.95
2017-05-24T14:07:26.219Z,26.15
2017-05-24T14:08:36.147Z,25.99
2017-05-24T14:09:46.124Z,26.06
2017-05-24T14:10:56.058Z,25.94
2017-05-24T14:12:05.983Z,25.98
2017-05-24T14:13:15.597Z,25.97
2017-05-24T14:14:25.520Z,26.02
2017-05-24T14:15:35.144Z,26.01
2017-05-24T14:16:44.506Z,25.99
2017-05-24T14:17:54.146Z,25.98
2017-05-24T14:19:04.067Z,26.1
2017-05-24T14:20:14.446Z,26.07
2017-05-24T14:21:23.746Z,26.06
2017-05-24T14:22:33.975Z,26.15
2017-05-24T14:23:44.206Z,26.12
2017-05-24T14:24:54.152Z,26.01
2017-05-24T14:26:04.444Z,25.98
2017-05-24T14:27:14.680Z,26.05
2017-05-24T14:28:24.617Z,25.99
2017-05-24T14:29:34.838Z,26.06
2017-05-24T14:30:45.061Z,26.01
2017-05-24T14:31:55.298Z,25.98
2017-05-24T14:33:05.532Z,26.01
2017-05-24T14:34:15.483Z,26.07
2017-05-24T14:35:25.707Z,26.05
2017-05-24T14:36:35.937Z,25.98
2017-05-24T14:37:45.976Z,25.97
2017-05-24T14:38:55.900Z,25.99
2017-05-24T14:40:06.142Z,25.94
2017-05-24T14:41:16.370Z,25.97
2017-05-24T14:42:26.601Z,25.97
2017-05-24T14:43:36.688Z,25.9
2017-05-24T14:44:46.307Z,25.94
2017-05-24T14:45:56.232Z,26.02
2017-05-24T14:47:05.862Z,25.98
2017-05-24T14:48:16.092Z,26.01
2017-05-24T14:49:26.120Z,25.98
2017-05-24T14:50:35.425Z,26.09
2017-05-24T14:51:45.664Z,25.97
2017-05-24T14:52:55.284Z,26.09
2017-05-24T14:54:05.206Z,26.07
2017-05-24T14:55:15.166Z,25.99
2017-05-24T14:56:25.092Z,25.97
2017-05-24T14:57:35.013Z,25.98
2017-05-24T14:58:44.944Z,25.98
2017-05-24T14:59:53.972Z,25.98
2017-05-24T15:01:03.593Z,25.98
2017-05-24T15:02:13.215Z,26.01
2017-05-24T15:03:22.215Z,26.02
2017-05-24T15:04:32.482Z,26.06